Indian Grove, Missouri
Current Conditions -  °F | °C
As of 3:15 PM on Tuesday 21 Oct 2014 (Local Time) from KVER Reporting Station
Clear Clear  
Wind Chill: 72°   Ceiling: Unl
Heat Index: 72°   Visibility: 10mi
Dew Point: 42°   Wind: 3mph
Humidity: 34%   Direction: 10°N
Pressure: 30.09"   Gusts: NA
Location:  39.4474°N, 93.0872°W
Report Text: KVER 212015Z AUTO 01003KT 10SM CLR 22/06 A3009 RMK AO2 T02220057
Loading
Personal Weather Stations






























Interactive Weather Map New forecast layout! Learn more

10-Day Weather Forecast

Advertisements
Track Severe Weather on mobile